Time;durP1;ratioP1;P1;durP2;ratioP2;P2;SDS_P1;SDS_P2;PMS_P1;PMS_P2;Temp;Humidity;BMP_temperature;BMP_pressure;BME280_temperature;BME280_humidity;BME280_pressure;Samples;Min_cycle;Max_cycle;Signal;HPM_P1;HPM_P2
2022/04/27 00:00:28;;;;;;;16.83;12.00;;;8.20;99.90;;;;;;5032280;28;20430;-72
2022/04/27 00:02:53;;;;;;;19.37;11.67;;;8.20;99.90;;;;;;5014458;28;20507;-72
2022/04/27 00:05:20;;;;;;;17.60;10.93;;;8.20;99.90;;;;;;5032393;28;20502;-71
2022/04/27 00:07:45;;;;;;;16.80;11.17;;;8.10;99.90;;;;;;5032303;28;20205;-73
2022/04/27 00:10:12;;;;;;;19.47;11.90;;;8.20;99.90;;;;;;5014772;28;20473;-73
2022/04/27 00:12:38;;;;;;;16.50;12.40;;;8.10;99.90;;;;;;5032469;28;20188;-72
2022/04/27 00:15:07;;;;;;;20.60;12.30;;;8.20;99.90;;;;;;5032399;28;20437;-72
2022/04/27 00:17:34;;;;;;;24.00;13.43;;;8.20;99.90;;;;;;5032084;28;20821;-71
2022/04/27 00:20:00;;;;;;;17.97;12.40;;;8.20;99.90;;;;;;5014834;28;20415;-71
2022/04/27 00:22:26;;;;;;;24.10;12.50;;;8.20;99.90;;;;;;5032051;28;20903;-72
2022/04/27 00:24:51;;;;;;;20.13;13.33;;;8.20;99.90;;;;;;5014730;28;20446;-73
2022/04/27 00:27:17;;;;;;;28.47;14.03;;;8.20;99.90;;;;;;5032485;28;20208;-72
2022/04/27 00:29:43;;;;;;;21.43;14.10;;;8.20;99.90;;;;;;5032647;28;20187;-72
2022/04/27 00:32:08;;;;;;;21.60;13.17;;;8.20;99.90;;;;;;5032523;28;20419;-72
2022/04/27 00:34:35;;;;;;;19.73;12.77;;;8.30;99.90;;;;;;5032520;28;20185;-71
2022/04/27 00:37:00;;;;;;;25.50;12.70;;;8.20;99.90;;;;;;5032262;28;20192;-71
2022/04/27 00:39:26;;;;;;;15.80;11.37;;;8.20;99.90;;;;;;5032224;28;20422;-71
2022/04/27 00:42:02;;;;;;;14.23;9.87;;;8.20;99.90;;;;;;5032297;28;20181;-72
2022/04/27 00:44:32;;;;;;;19.70;10.40;;;8.20;99.90;;;;;;5032083;28;20182;-71
2022/04/27 00:46:58;;;;;;;18.20;11.90;;;8.20;99.90;;;;;;5031623;28;20423;-71
2022/04/27 00:49:26;;;;;;;18.63;11.57;;;8.20;99.90;;;;;;5031751;28;20424;-71
2022/04/27 00:51:52;;;;;;;15.17;10.40;;;8.20;99.90;;;;;;5030170;28;20415;-72
2022/04/27 00:54:22;;;;;;;17.03;11.53;;;8.20;99.90;;;;;;5031692;28;20418;-71
2022/04/27 00:56:51;;;;;;;17.70;11.20;;;8.20;99.90;;;;;;5031618;28;20512;-71
2022/04/27 00:59:17;;;;;;;16.47;11.97;;;8.20;99.90;;;;;;5013573;28;20467;-71
2022/04/27 01:01:42;;;;;;;20.03;12.57;;;8.20;99.90;;;;;;5031359;28;20419;-72
2022/04/27 01:04:08;;;;;;;18.17;12.27;;;8.20;99.90;;;;;;5031316;28;20442;-72
2022/04/27 01:06:35;;;;;;;16.77;12.27;;;8.20;99.90;;;;;;5031380;28;20311;-71
2022/04/27 01:09:02;;;;;;;25.40;13.40;;;8.20;99.90;;;;;;5031079;28;20200;-72
2022/04/27 01:11:27;;;;;;;19.83;12.73;;;8.20;99.90;;;;;;5013345;28;20427;-71
2022/04/27 01:13:53;;;;;;;21.30;12.70;;;8.10;99.90;;;;;;5031123;28;20431;-71
2022/04/27 01:16:18;;;;;;;19.07;12.17;;;8.20;99.90;;;;;;5013330;28;20196;-72
2022/04/27 01:18:45;;;;;;;23.70;13.27;;;8.20;99.90;;;;;;5012881;28;20247;-72
2022/04/27 01:21:11;;;;;;;21.17;13.00;;;8.10;99.90;;;;;;5030984;28;20689;-71
2022/04/27 01:23:37;;;;;;;24.00;14.67;;;8.10;99.90;;;;;;5030907;28;20415;-71
2022/04/27 01:26:06;;;;;;;19.87;13.90;;;8.10;99.90;;;;;;5030900;28;20866;-71
2022/04/27 01:28:35;;;;;;;24.33;14.73;;;8.10;99.90;;;;;;5030926;28;20555;-72
2022/04/27 01:31:02;;;;;;;22.27;14.13;;;8.10;99.90;;;;;;5030898;28;20793;-71
2022/04/27 01:33:34;;;;;;;23.67;14.90;;;8.10;99.90;;;;;;5012749;28;20429;-72
2022/04/27 01:36:04;;;;;;;22.43;13.73;;;8.00;99.90;;;;;;5012572;28;20485;-71
2022/04/27 01:38:37;;;;;;;21.83;13.90;;;7.90;99.90;;;;;;5030432;28;20485;-71
2022/04/27 01:41:04;;;;;;;27.47;14.47;;;7.90;99.90;;;;;;5030697;28;20431;-70
2022/04/27 01:43:29;;;;;;;19.60;13.57;;;7.90;99.90;;;;;;5030766;28;20924;-71
2022/04/27 01:45:56;;;;;;;20.93;12.67;;;7.90;99.90;;;;;;5030799;28;20498;-72
2022/04/27 01:48:22;;;;;;;23.87;14.93;;;8.00;99.90;;;;;;5012949;28;20235;-71
2022/04/27 01:50:49;;;;;;;26.97;14.83;;;8.00;99.90;;;;;;5030733;28;20434;-71
2022/04/27 01:55:59;;;;;;;21.20;13.50;;;7.90;99.90;;;;;;5030825;28;20912;-71
2022/04/27 01:58:25;;;;;;;23.23;14.73;;;7.90;99.90;;;;;;5031052;28;20470;-71
2022/04/27 02:00:52;;;;;;;22.87;14.17;;;8.00;99.90;;;;;;5032741;28;20190;-72
2022/04/27 02:03:18;;;;;;;27.87;14.03;;;7.90;99.90;;;;;;5032391;28;20426;-73
2022/04/27 02:05:48;;;;;;;33.70;15.67;;;7.90;99.90;;;;;;5032984;28;20495;-71
2022/04/27 02:08:14;;;;;;;27.17;14.87;;;7.90;99.90;;;;;;5031728;28;20976;-71
2022/04/27 02:10:40;;;;;;;29.60;15.37;;;7.90;99.90;;;;;;5031106;28;20425;-71
2022/04/27 02:13:07;;;;;;;23.37;13.63;;;7.90;99.90;;;;;;5013580;28;20809;-72
2022/04/27 02:15:33;;;;;;;21.60;13.17;;;7.80;99.90;;;;;;5031186;28;20192;-71
2022/04/27 02:18:00;;;;;;;28.20;15.20;;;7.70;99.90;;;;;;5013337;28;20566;-71
2022/04/27 02:20:26;;;;;;;21.63;14.07;;;7.70;99.90;;;;;;5030660;28;20526;-71
2022/04/27 02:22:52;;;;;;;19.33;12.43;;;7.60;99.90;;;;;;5012762;28;20426;-71
2022/04/27 02:25:18;;;;;;;25.13;14.70;;;7.60;99.90;;;;;;5012673;28;20869;-71
2022/04/27 02:27:44;;;;;;;32.07;15.83;;;7.70;99.90;;;;;;5030327;28;20438;-71
2022/04/27 02:30:11;;;;;;;38.47;15.67;;;7.70;99.90;;;;;;5030065;28;20434;-72
2022/04/27 02:32:37;;;;;;;25.47;14.40;;;7.70;99.90;;;;;;5030336;28;20228;-71
2022/04/27 02:35:04;;;;;;;31.47;14.97;;;7.70;99.90;;;;;;5030202;28;20432;-71
2022/04/27 02:37:30;;;;;;;26.07;13.93;;;7.70;99.90;;;;;;5030205;28;20479;-70
2022/04/27 02:39:57;;;;;;;26.67;13.70;;;7.70;99.90;;;;;;5030316;28;20497;-71
2022/04/27 02:42:23;;;;;;;25.70;14.80;;;7.70;99.90;;;;;;5030558;28;20795;-71
2022/04/27 02:44:48;;;;;;;35.10;14.83;;;7.70;99.90;;;;;;5013173;28;20424;-71
2022/04/27 02:47:14;;;;;;;29.50;14.50;;;7.70;99.90;;;;;;5031083;28;20439;-72
2022/04/27 02:52:24;;;;;;;29.40;13.90;;;7.70;99.90;;;;;;5030223;28;20435;-72
2022/04/27 02:54:50;;;;;;;29.90;14.80;;;7.70;99.90;;;;;;5012083;28;20448;-71
2022/04/27 02:57:16;;;;;;;25.23;14.13;;;7.70;99.90;;;;;;5011870;28;20234;-70
2022/04/27 02:59:42;;;;;;;28.60;15.20;;;7.70;99.90;;;;;;5029781;28;20177;-71
2022/04/27 03:02:08;;;;;;;20.10;13.00;;;7.70;99.90;;;;;;5029695;28;20454;-70
2022/04/27 03:04:34;;;;;;;18.83;12.23;;;7.70;99.90;;;;;;5029547;28;20453;-71
2022/04/27 03:06:59;;;;;;;19.70;12.50;;;7.60;99.90;;;;;;5029360;28;20436;-71
2022/04/27 03:09:25;;;;;;;19.40;12.70;;;7.60;99.90;;;;;;5011797;28;20609;-71
2022/04/27 03:11:51;;;;;;;20.67;13.57;;;7.60;99.90;;;;;;5029353;28;20197;-72
2022/04/27 03:14:16;;;;;;;21.50;14.10;;;7.60;99.90;;;;;;4994638;28;20653;-71
2022/04/27 03:16:42;;;;;;;20.10;13.10;;;7.60;99.90;;;;;;5028978;28;20207;-71
2022/04/27 03:19:08;;;;;;;22.77;15.47;;;7.60;99.90;;;;;;5010908;28;20223;-71
2022/04/27 03:21:33;;;;;;;20.60;14.47;;;7.60;99.90;;;;;;5010978;28;20238;-71
2022/04/27 03:23:59;;;;;;;20.93;14.50;;;7.60;99.90;;;;;;5029337;28;20193;-72
2022/04/27 03:26:25;;;;;;;25.57;16.03;;;7.60;99.90;;;;;;5028813;28;20290;-72
2022/04/27 03:28:50;;;;;;;21.90;14.33;;;7.70;99.90;;;;;;5011009;28;20551;-71
2022/04/27 03:31:16;;;;;;;23.87;16.20;;;7.70;99.90;;;;;;5010743;28;20227;-72
2022/04/27 03:33:41;;;;;;;22.03;14.70;;;7.70;99.90;;;;;;5028844;28;20283;-72
2022/04/27 03:36:11;;;;;;;23.87;15.17;;;7.80;99.90;;;;;;5028547;28;20271;-72
2022/04/27 03:38:38;;;;;;;26.53;15.17;;;7.70;99.90;;;;;;5028524;28;20589;-72
2022/04/27 03:41:05;;;;;;;24.57;15.80;;;7.80;99.90;;;;;;5010939;28;20459;-72
2022/04/27 03:43:30;;;;;;;28.30;15.30;;;7.80;99.90;;;;;;5028716;28;20485;-71
2022/04/27 03:45:56;;;;;;;28.43;15.37;;;7.80;99.90;;;;;;5028705;28;20436;-73
2022/04/27 03:48:22;;;;;;;25.40;16.10;;;7.80;99.90;;;;;;5028631;28;20443;-72
2022/04/27 03:50:48;;;;;;;34.30;17.27;;;7.80;99.90;;;;;;5028419;28;20900;-70
2022/04/27 03:53:13;;;;;;;26.53;17.30;;;7.90;99.90;;;;;;5028626;28;20193;-71
2022/04/27 03:55:39;;;;;;;32.60;18.30;;;7.80;99.90;;;;;;5028358;28;20207;-72
2022/04/27 03:58:05;;;;;;;30.83;17.13;;;7.90;99.90;;;;;;5028319;28;20223;-71
2022/04/27 04:00:32;;;;;;;25.50;15.80;;;7.80;99.90;;;;;;5028661;28;20181;-71
2022/04/27 04:02:59;;;;;;;24.73;15.00;;;7.80;99.90;;;;;;5028590;28;20419;-72
2022/04/27 04:05:24;;;;;;;23.50;14.63;;;7.90;99.90;;;;;;5010237;28;20525;-72
2022/04/27 04:07:50;;;;;;;23.77;13.83;;;7.80;99.90;;;;;;5010441;28;20546;-73
2022/04/27 04:10:16;;;;;;;22.57;12.80;;;7.70;99.90;;;;;;5010375;28;20681;-73
2022/04/27 04:12:43;;;;;;;25.37;15.30;;;7.70;99.90;;;;;;5028535;28;20199;-72
2022/04/27 04:15:09;;;;;;;22.30;14.27;;;7.80;99.90;;;;;;5028240;28;20251;-72
2022/04/27 04:17:35;;;;;;;23.63;14.47;;;7.80;99.90;;;;;;5028572;28;20478;-72
2022/04/27 04:20:01;;;;;;;26.50;15.13;;;7.80;99.90;;;;;;5027121;28;20423;-73
2022/04/27 04:22:26;;;;;;;20.43;13.70;;;7.80;99.90;;;;;;5026802;28;20187;-73
2022/04/27 04:30:20;;;;;;;23.67;15.17;;;7.60;99.90;;;;;;5030545;28;20423;-73
2022/04/27 04:32:46;;;;;;;24.77;15.03;;;7.50;99.90;;;;;;5012648;28;20427;-72
2022/04/27 04:35:13;;;;;;;21.83;15.00;;;7.60;99.90;;;;;;5012396;28;20232;-73
2022/04/27 04:37:39;;;;;;;24.20;15.57;;;7.60;99.90;;;;;;5030234;28;20219;-73
2022/04/27 04:40:05;;;;;;;18.90;14.33;;;7.60;99.90;;;;;;5030275;28;20420;-73
2022/04/27 04:42:32;;;;;;;23.70;15.83;;;7.60;99.90;;;;;;5030196;28;20187;-73
2022/04/27 04:44:58;;;;;;;26.60;16.73;;;7.70;99.90;;;;;;5030555;28;20419;-72
2022/04/27 04:47:24;;;;;;;22.43;14.83;;;7.70;99.90;;;;;;5030155;28;20477;-73
2022/04/27 04:49:49;;;;;;;42.93;18.30;;;7.80;99.90;;;;;;5012258;28;20651;-73
2022/04/27 04:52:15;;;;;;;28.13;17.20;;;7.80;99.90;;;;;;5012981;28;20188;-73
2022/04/27 04:54:40;;;;;;;21.67;16.07;;;7.80;99.90;;;;;;5012711;28;20189;-73
2022/04/27 04:57:06;;;;;;;26.93;17.40;;;7.80;99.90;;;;;;5030228;28;20208;-73
2022/04/27 04:59:32;;;;;;;24.80;16.23;;;7.90;99.90;;;;;;5030642;28;20255;-73
2022/04/27 05:01:57;;;;;;;26.63;17.00;;;7.80;99.90;;;;;;5030737;28;20187;-73
2022/04/27 05:04:23;;;;;;;22.33;14.63;;;8.00;99.90;;;;;;5030587;28;20184;-73
2022/04/27 05:06:48;;;;;;;26.63;16.37;;;8.00;99.90;;;;;;5012359;28;20317;-72
2022/04/27 05:09:14;;;;;;;19.80;15.07;;;8.00;99.90;;;;;;5030680;28;20202;-72
2022/04/27 05:11:40;;;;;;;29.00;17.07;;;8.00;99.90;;;;;;5012656;28;20193;-73
2022/04/27 05:14:05;;;;;;;26.00;16.97;;;7.90;99.90;;;;;;5030477;28;20275;-73
2022/04/27 05:16:33;;;;;;;26.07;15.50;;;7.90;99.90;;;;;;4995806;28;20273;-71
2022/04/27 05:18:59;;;;;;;26.27;15.80;;;8.00;99.90;;;;;;5030268;28;20870;-72
2022/04/27 05:21:25;;;;;;;19.87;14.80;;;7.90;99.90;;;;;;5011961;28;20471;-73
2022/04/27 05:23:50;;;;;;;23.53;15.43;;;7.80;99.90;;;;;;5029977;28;20423;-73
2022/04/27 05:26:16;;;;;;;22.93;14.13;;;7.90;99.90;;;;;;5029575;28;21005;-72
2022/04/27 05:34:10;;;;;;;21.07;14.07;;;8.00;99.90;;;;;;5029697;28;20484;-72
2022/04/27 05:36:35;;;;;;;23.70;15.83;;;8.10;99.90;;;;;;5010971;28;20916;-72
2022/04/27 05:39:01;;;;;;;20.30;14.20;;;8.10;99.90;;;;;;5029411;28;20243;-73
2022/04/27 05:41:28;;;;;;;24.10;15.90;;;8.20;99.90;;;;;;5029387;28;20188;-73
2022/04/27 05:43:53;;;;;;;21.10;14.77;;;8.20;99.90;;;;;;5029203;28;20181;-72
2022/04/27 05:46:19;;;;;;;18.57;13.90;;;8.20;99.90;;;;;;5029174;28;20509;-72
2022/04/27 05:48:45;;;;;;;17.37;13.00;;;8.40;99.90;;;;;;5029003;28;20211;-74
2022/04/27 05:51:11;;;;;;;20.33;15.20;;;8.40;99.90;;;;;;5029160;28;20203;-73
2022/04/27 05:53:36;;;;;;;20.20;14.33;;;8.60;99.90;;;;;;5029157;28;20784;-73
2022/04/27 05:56:02;;;;;;;20.73;15.50;;;8.70;99.90;;;;;;5029167;28;20878;-73
2022/04/27 05:58:30;;;;;;;21.50;14.83;;;8.80;99.90;;;;;;5010641;28;20286;-74
2022/04/27 06:00:55;;;;;;;18.27;13.97;;;8.80;99.90;;;;;;5028993;28;20242;-72
2022/04/27 06:03:21;;;;;;;21.60;14.90;;;8.90;99.90;;;;;;5028997;28;20423;-73
2022/04/27 06:05:47;;;;;;;22.93;16.00;;;8.90;99.90;;;;;;5029175;28;20188;-72
2022/04/27 06:08:14;;;;;;;21.20;15.47;;;9.00;99.90;;;;;;5011555;28;20219;-73
2022/04/27 06:10:40;;;;;;;19.70;15.10;;;9.00;99.90;;;;;;5029344;28;20567;-72
2022/04/27 06:13:06;;;;;;;33.70;16.00;;;9.10;99.90;;;;;;5029116;28;20429;-72
2022/04/27 06:15:31;;;;;;;22.70;15.87;;;9.20;99.90;;;;;;5029123;28;20518;-73
2022/04/27 06:17:57;;;;;;;26.03;16.30;;;9.30;99.90;;;;;;5029257;28;20463;-72
2022/04/27 06:20:23;;;;;;;24.80;16.50;;;9.30;99.90;;;;;;5029528;28;20914;-72
2022/04/27 06:22:48;;;;;;;22.27;16.10;;;9.50;99.90;;;;;;5011583;28;20272;-72
2022/04/27 06:25:14;;;;;;;22.53;17.40;;;9.60;99.90;;;;;;5029386;28;20201;-72
2022/04/27 06:27:40;;;;;;;19.40;15.40;;;9.70;99.90;;;;;;5023638;28;20211;-74
2022/04/27 06:30:06;;;;;;;23.70;17.67;;;9.80;99.90;;;;;;5054579;28;20197;-73
2022/04/27 06:32:33;;;;;;;20.20;14.63;;;9.90;99.90;;;;;;5053928;28;20403;-72
2022/04/27 06:35:02;;;;;;;20.20;15.40;;;9.90;99.90;;;;;;5053593;28;20439;-73
2022/04/27 06:37:28;;;;;;;19.87;15.53;;;10.00;99.90;;;;;;5036806;28;20450;-74
2022/04/27 06:39:53;;;;;;;17.30;14.03;;;10.00;99.90;;;;;;5019647;28;20409;-72
2022/04/27 06:42:20;;;;;;;20.70;14.27;;;10.00;99.90;;;;;;5031337;28;20267;-72
2022/04/27 06:44:46;;;;;;;16.87;13.57;;;10.10;99.90;;;;;;5029355;28;20658;-72
2022/04/27 06:47:13;;;;;;;16.03;12.93;;;10.20;99.90;;;;;;5028124;28;20438;-72
2022/04/27 06:49:38;;;;;;;19.60;14.00;;;10.30;99.90;;;;;;5027831;28;20785;-72
2022/04/27 06:52:04;;;;;;;18.63;14.67;;;10.30;99.90;;;;;;5027937;28;20426;-73
2022/04/27 06:54:30;;;;;;;16.10;13.80;;;10.30;99.90;;;;;;5028136;28;20199;-72
2022/04/27 06:56:55;;;;;;;17.07;13.50;;;10.20;99.90;;;;;;5027629;28;20187;-72
2022/04/27 06:59:21;;;;;;;17.20;12.30;;;10.30;99.90;;;;;;5009677;28;20213;-72
2022/04/27 07:01:47;;;;;;;18.43;13.50;;;10.20;99.90;;;;;;5027607;28;20207;-72
2022/04/27 07:04:13;;;;;;;18.53;14.30;;;10.20;99.90;;;;;;5027720;28;20669;-72
2022/04/27 07:06:39;;;;;;;16.27;13.63;;;10.20;99.90;;;;;;5027412;28;20220;-73
2022/04/27 07:09:11;;;;;;;18.07;12.87;;;10.10;99.90;;;;;;5027399;28;21030;-73
2022/04/27 07:11:37;;;;;;;17.20;13.70;;;10.10;99.90;;;;;;5027473;28;21132;-73
2022/04/27 07:14:03;;;;;;;14.03;11.33;;;10.00;99.90;;;;;;5027594;28;20427;-73
2022/04/27 07:16:28;;;;;;;18.40;13.77;;;10.00;99.90;;;;;;5027420;28;20415;-72
2022/04/27 07:18:55;;;;;;;18.37;13.87;;;10.00;99.90;;;;;;5027179;28;20475;-72
2022/04/27 07:21:21;;;;;;;19.43;15.40;;;9.90;99.90;;;;;;5009696;28;20180;-72
2022/04/27 07:23:47;;;;;;;22.30;17.13;;;9.90;99.90;;;;;;5028059;28;20419;-72
2022/04/27 07:26:12;;;;;;;21.10;17.20;;;9.80;99.90;;;;;;5027235;28;20466;-72
2022/04/27 07:28:38;;;;;;;24.17;17.93;;;9.90;99.90;;;;;;5027321;28;20438;-72
2022/04/27 07:31:05;;;;;;;20.73;16.13;;;9.90;99.90;;;;;;5027079;28;20220;-72
2022/04/27 07:33:31;;;;;;;23.03;15.57;;;10.00;99.90;;;;;;5027195;28;20516;-71
2022/04/27 07:35:56;;;;;;;22.43;16.97;;;10.00;99.90;;;;;;5009202;28;20435;-71
2022/04/27 07:38:22;;;;;;;19.83;15.67;;;10.10;99.90;;;;;;5026965;28;20475;-72
2022/04/27 07:40:48;;;;;;;17.20;14.17;;;10.00;99.90;;;;;;5027010;28;20193;-72
2022/04/27 07:43:14;;;;;;;16.13;13.67;;;10.10;99.90;;;;;;5027049;28;20561;-72
2022/04/27 07:45:44;;;;;;;17.50;13.67;;;10.20;99.90;;;;;;5027049;28;20230;-72
2022/04/27 07:48:10;;;;;;;15.90;13.13;;;10.50;99.90;;;;;;5026918;28;20451;-72
2022/04/27 07:50:36;;;;;;;17.47;14.67;;;10.60;99.90;;;;;;5026907;28;20419;-72
2022/04/27 07:53:02;;;;;;;17.00;14.20;;;10.70;99.90;;;;;;5026884;28;20791;-72
2022/04/27 07:55:29;;;;;;;17.67;13.27;;;10.80;99.90;;;;;;5026923;28;20195;-72
2022/04/27 07:57:55;;;;;;;19.77;14.30;;;10.80;99.90;;;;;;5026654;28;20224;-71
2022/04/27 08:00:21;;;;;;;15.50;13.40;;;10.90;99.90;;;;;;5028027;28;20413;-72
2022/04/27 08:02:47;;;;;;;13.77;12.00;;;10.90;99.90;;;;;;5031182;28;20919;-72
2022/04/27 08:05:15;;;;;;;12.17;10.93;;;11.10;99.90;;;;;;5030630;28;20420;-71
2022/04/27 08:07:46;;;;;;;15.67;11.27;;;11.10;99.90;;;;;;5013049;28;20207;-72
2022/04/27 08:10:12;;;;;;;12.97;9.87;;;11.20;99.90;;;;;;5030602;28;20418;-71
2022/04/27 08:12:40;;;;;;;12.60;10.97;;;11.10;99.90;;;;;;5030453;28;20430;-72
2022/04/27 08:15:07;;;;;;;13.80;10.93;;;11.20;99.90;;;;;;5030496;28;20527;-72
2022/04/27 08:17:33;;;;;;;15.50;12.73;;;11.30;99.90;;;;;;5030305;28;20454;-72
2022/04/27 08:22:43;;;;;;;13.57;11.80;;;11.50;99.90;;;;;;5030654;28;21054;-72
2022/04/27 08:25:09;;;;;;;14.53;11.13;;;11.50;99.90;;;;;;5030465;28;20442;-72
2022/04/27 08:27:35;;;;;;;14.23;12.07;;;11.70;99.90;;;;;;5012363;28;20217;-72
2022/04/27 08:30:00;;;;;;;13.57;11.47;;;11.80;99.90;;;;;;5030273;28;20616;-72
2022/04/27 08:32:26;;;;;;;11.27;8.80;;;11.90;99.90;;;;;;5030275;28;20219;-72
2022/04/27 08:34:52;;;;;;;13.33;11.60;;;12.00;99.90;;;;;;5012375;28;20189;-72
2022/04/27 08:37:17;;;;;;;11.10;9.57;;;12.10;99.90;;;;;;5030138;28;20573;-72
2022/04/27 08:39:43;;;;;;;13.77;10.30;;;12.10;99.90;;;;;;5030176;28;20186;-72
2022/04/27 08:42:11;;;;;;;12.20;9.60;;;12.00;99.90;;;;;;5029932;28;20276;-72
2022/04/27 08:44:38;;;;;;;11.63;9.53;;;12.10;99.90;;;;;;4996193;28;20251;-72
2022/04/27 08:47:07;;;;;;;15.73;12.57;;;12.10;99.90;;;;;;5029740;28;20466;-71
2022/04/27 08:49:34;;;;;;;13.13;11.10;;;12.00;99.90;;;;;;5029775;28;20474;-72
2022/04/27 08:52:01;;;;;;;10.83;9.27;;;12.10;99.90;;;;;;5029933;28;20470;-72
2022/04/27 08:54:28;;;;;;;10.10;8.43;;;12.10;99.90;;;;;;5012055;28;20428;-72
2022/04/27 08:56:53;;;;;;;9.40;8.20;;;12.00;99.90;;;;;;5029888;28;20475;-71
2022/04/27 08:59:19;;;;;;;9.60;8.53;;;12.00;99.90;;;;;;5029736;28;20476;-71
2022/04/27 09:01:45;;;;;;;12.30;10.03;;;12.00;99.90;;;;;;5029823;28;20747;-71
2022/04/27 09:04:16;;;;;;;11.90;9.20;;;12.10;99.90;;;;;;5029910;28;20511;-72
2022/04/27 09:06:42;;;;;;;9.53;8.53;;;12.10;99.90;;;;;;5011543;28;20188;-72
2022/04/27 09:09:10;;;;;;;10.73;8.63;;;12.10;99.90;;;;;;5029589;28;21084;-71
2022/04/27 09:11:37;;;;;;;10.37;9.17;;;12.10;99.90;;;;;;5010824;28;20433;-72
2022/04/27 09:14:09;;;;;;;10.80;9.60;;;12.20;99.90;;;;;;5029506;28;20849;-72
2022/04/27 09:22:08;;;;;;;9.33;8.40;;;12.60;99.90;;;;;;5029389;28;20474;-72
2022/04/27 09:24:51;;;;;;;9.10;7.97;;;12.70;99.90;;;;;;5029712;28;20890;-72
2022/04/27 09:27:22;;;;;;;8.07;7.27;;;12.70;99.90;;;;;;5010981;28;20480;-72
2022/04/27 09:29:59;;;;;;;8.67;7.77;;;12.70;99.90;;;;;;5029087;28;20416;-72
2022/04/27 09:32:25;;;;;;;12.47;8.60;;;12.80;99.90;;;;;;5028873;28;20477;-72
2022/04/27 09:34:51;;;;;;;8.50;7.70;;;12.80;99.90;;;;;;5028884;28;20421;-73
2022/04/27 09:37:22;;;;;;;8.73;7.83;;;12.90;99.90;;;;;;4994594;28;20449;-72
2022/04/27 09:40:13;;;;;;;7.87;7.07;;;13.00;99.90;;;;;;5011509;28;20426;-73
2022/04/27 09:42:45;;;;;;;9.90;8.27;;;13.00;99.90;;;;;;5029083;28;20430;-72
2022/04/27 09:45:15;;;;;;;9.80;8.23;;;13.10;99.90;;;;;;5011379;28;20500;-73
2022/04/27 09:47:46;;;;;;;8.10;6.03;;;13.10;99.90;;;;;;5011123;28;20442;-73
2022/04/27 09:50:11;;;;;;;7.57;6.40;;;13.30;99.90;;;;;;5029197;28;20431;-73
2022/04/27 09:52:37;;;;;;;7.47;6.13;;;13.50;99.90;;;;;;5028920;28;20426;-73
2022/04/27 09:55:05;;;;;;;7.20;6.47;;;13.50;99.90;;;;;;5011014;28;20202;-72
2022/04/27 09:57:35;;;;;;;7.87;6.23;;;13.50;99.90;;;;;;5028560;28;20445;-72
2022/04/27 10:00:01;;;;;;;7.10;6.40;;;14.00;99.90;;;;;;5028872;28;20459;-73
2022/04/27 10:02:30;;;;;;;10.07;6.50;;;14.60;99.90;;;;;;5028841;28;20434;-73
2022/04/27 10:04:58;;;;;;;6.50;5.90;;;14.80;99.90;;;;;;5011011;28;20884;-72
2022/04/27 10:07:25;;;;;;;5.50;5.00;;;15.10;99.90;;;;;;5031067;28;20520;-72
2022/04/27 10:09:52;;;;;;;5.80;5.17;;;15.50;99.90;;;;;;5029953;28;20438;-73
2022/04/27 10:12:18;;;;;;;5.53;4.90;;;15.60;99.90;;;;;;5028649;28;20419;-72
2022/04/27 10:14:44;;;;;;;6.97;5.67;;;15.40;99.90;;;;;;5028689;28;20434;-73
2022/04/27 10:17:15;;;;;;;5.70;5.03;;;15.20;99.90;;;;;;5029474;28;20499;-72
2022/04/27 10:19:48;;;;;;;5.87;5.30;;;14.90;99.90;;;;;;5029497;28;20485;-71
2022/04/27 10:22:43;;;;;;;5.83;5.23;;;14.70;99.90;;;;;;5028662;28;20731;-73
2022/04/27 10:25:09;;;;;;;6.10;5.07;;;14.20;99.90;;;;;;5011154;28;20451;-72
2022/04/27 10:27:42;;;;;;;5.27;4.87;;;14.40;99.90;;;;;;5028381;28;21022;-72
2022/04/27 10:30:13;;;;;;;5.77;4.70;;;14.30;99.90;;;;;;5029048;28;20440;-72
2022/04/27 10:32:39;;;;;;;10.00;7.00;;;14.30;99.90;;;;;;5010813;28;21046;-74
2022/04/27 10:35:21;;;;;;;5.93;5.33;;;14.30;99.90;;;;;;5028843;28;20459;-72
2022/04/27 10:37:59;;;;;;;6.33;5.17;;;14.30;99.90;;;;;;5028719;28;20215;-72
2022/04/27 10:40:25;;;;;;;6.70;6.00;;;14.30;99.90;;;;;;5010780;28;20912;-72
2022/04/27 10:42:51;;;;;;;8.60;7.23;;;14.40;99.90;;;;;;5028888;28;21226;-72
2022/04/27 10:45:22;;;;;;;9.90;7.37;;;14.40;99.90;;;;;;5028966;28;20449;-72
2022/04/27 10:47:48;;;;;;;12.47;9.43;;;14.40;99.90;;;;;;5029198;28;20212;-72
2022/04/27 10:50:14;;;;;;;19.07;16.47;;;14.40;99.90;;;;;;5029331;28;20423;-71
2022/04/27 10:52:52;;;;;;;9.93;8.13;;;14.50;99.90;;;;;;5032614;28;20183;-73
2022/04/27 10:55:37;;;;;;;14.40;12.23;;;14.60;99.90;;;;;;5032714;28;20172;-73
2022/04/27 10:58:34;;;;;;;15.80;11.60;;;14.40;99.90;;;;;;5032540;28;20470;-72
2022/04/27 11:01:03;;;;;;;7.60;6.83;;;14.40;99.90;;;;;;5014228;28;20423;-73
2022/04/27 11:03:30;;;;;;;7.30;6.50;;;14.40;99.90;;;;;;5013811;28;20430;-72
2022/04/27 11:06:01;;;;;;;15.30;12.40;;;14.40;99.90;;;;;;5013870;28;21003;-72
2022/04/27 11:08:26;;;;;;;8.57;7.00;;;14.50;99.90;;;;;;5030315;28;20443;-72
2022/04/27 11:10:55;;;;;;;7.87;6.40;;;14.70;99.90;;;;;;5030355;28;20422;-74
2022/04/27 11:13:26;;;;;;;7.67;6.87;;;14.80;99.90;;;;;;5012118;28;20664;-72
2022/04/27 11:15:52;;;;;;;9.80;8.67;;;14.80;99.90;;;;;;5011099;28;20776;-73
2022/04/27 11:18:18;;;;;;;7.73;5.30;;;14.80;99.90;;;;;;5028418;28;20477;-72
2022/04/27 11:20:43;;;;;;;13.60;11.00;;;14.80;99.90;;;;;;5028250;28;20947;-72
2022/04/27 11:23:22;;;;;;;7.53;6.43;;;14.80;99.90;;;;;;5010598;28;20194;-72
2022/04/27 11:25:52;;;;;;;7.87;6.30;;;14.90;99.90;;;;;;5028120;28;20685;-73
2022/04/27 11:28:18;;;;;;;10.40;8.67;;;14.80;99.90;;;;;;5009743;28;20443;-73
2022/04/27 11:30:45;;;;;;;9.27;7.40;;;14.60;99.90;;;;;;5028017;28;20419;-72
2022/04/27 11:33:11;;;;;;;5.30;4.80;;;14.50;99.90;;;;;;4994179;28;20977;-73
2022/04/27 11:35:45;;;;;;;8.67;7.70;;;14.40;99.90;;;;;;5009657;28;20427;-72
2022/04/27 11:38:15;;;;;;;6.93;6.23;;;14.30;99.90;;;;;;5010288;28;20481;-73
2022/04/27 11:40:41;;;;;;;7.37;6.53;;;14.30;99.90;;;;;;5028131;28;20419;-73
2022/04/27 11:43:07;;;;;;;6.80;6.10;;;14.10;99.90;;;;;;5028275;28;20462;-73
2022/04/27 11:45:33;;;;;;;7.70;5.77;;;14.10;99.90;;;;;;5028188;28;20271;-72
2022/04/27 11:48:10;;;;;;;3.80;3.50;;;14.10;99.90;;;;;;5027994;28;20536;-73
2022/04/27 11:50:38;;;;;;;4.73;4.33;;;14.20;99.90;;;;;;5028119;28;20431;-72
2022/04/27 11:53:13;;;;;;;4.60;3.93;;;14.50;99.90;;;;;;5027944;28;20433;-72
2022/04/27 11:55:40;;;;;;;3.90;3.50;;;15.00;99.90;;;;;;5027627;28;20923;-73
2022/04/27 11:58:07;;;;;;;4.77;4.33;;;15.60;99.90;;;;;;5009460;28;20518;-72
2022/04/27 12:00:34;;;;;;;7.70;4.30;;;16.40;99.90;;;;;;5027605;28;20446;-72
2022/04/27 12:03:06;;;;;;;5.47;4.97;;;16.60;99.90;;;;;;5028089;28;20966;-72
2022/04/27 12:05:38;;;;;;;6.40;4.80;;;16.20;99.60;;;;;;5028436;28;20424;-72
2022/04/27 12:08:09;;;;;;;4.77;4.30;;;16.00;99.90;;;;;;5028244;28;20482;-72
2022/04/27 12:10:45;;;;;;;4.73;4.33;;;16.00;99.90;;;;;;5028771;28;20952;-73
2022/04/27 12:13:13;;;;;;;4.87;4.47;;;16.00;99.90;;;;;;5028625;28;20422;-73
2022/04/27 12:15:47;;;;;;;4.60;4.20;;;16.00;99.90;;;;;;5028542;28;20422;-73
2022/04/27 12:18:15;;;;;;;4.37;4.07;;;16.10;99.90;;;;;;5028356;28;20548;-73
2022/04/27 12:20:42;;;;;;;4.93;4.43;;;16.10;99.90;;;;;;5028573;28;20958;-72
2022/04/27 12:23:10;;;;;;;4.60;4.20;;;16.10;99.90;;;;;;5028384;28;20430;-73
2022/04/27 12:25:55;;;;;;;4.43;4.10;;;16.00;99.90;;;;;;5028357;28;20471;-72
2022/04/27 12:28:29;;;;;;;5.10;4.60;;;15.90;99.90;;;;;;5028358;28;20815;-72
2022/04/27 12:31:08;;;;;;;5.10;4.70;;;15.60;99.90;;;;;;5028345;28;20426;-72
2022/04/27 12:33:36;;;;;;;5.70;5.20;;;15.30;99.90;;;;;;5027867;28;20435;-72
2022/04/27 12:38:57;;;;;;;4.60;4.20;;;15.20;99.90;;;;;;5027146;28;20540;-73
2022/04/27 12:41:32;;;;;;;5.90;4.83;;;15.00;99.90;;;;;;5009437;28;20552;-75
2022/04/27 12:44:05;;;;;;;31.70;17.43;;;15.00;99.90;;;;;;5027321;28;20427;-73
2022/04/27 12:46:31;;;;;;;8.13;6.07;;;15.00;99.90;;;;;;5028854;28;20527;-72
2022/04/27 12:49:02;;;;;;;9.23;7.60;;;15.00;99.90;;;;;;5031033;28;20504;-72
2022/04/27 12:51:29;;;;;;;4.43;4.00;;;14.90;99.90;;;;;;5031182;28;20415;-73
2022/04/27 12:53:54;;;;;;;4.83;4.43;;;14.90;99.90;;;;;;5013294;28;20423;-73
2022/04/27 12:56:22;;;;;;;4.10;3.70;;;14.90;99.90;;;;;;5030853;28;20475;-73
2022/04/27 12:59:08;;;;;;;4.50;4.20;;;14.80;99.90;;;;;;5030547;28;20213;-73
2022/04/27 13:01:34;;;;;;;3.90;3.60;;;14.90;99.90;;;;;;5030794;28;20438;-73
2022/04/27 13:04:00;;;;;;;3.83;3.50;;;15.00;99.90;;;;;;4996581;28;20430;-74
2022/04/27 13:06:30;;;;;;;9.07;3.87;;;15.10;99.90;;;;;;5030768;28;20423;-73